sensor_id;sensor_type;location;lat;lon;timestamp;temperature;humidity
69031;DHT22;56083;48.774;8.942;2023-05-21T00:01:03;14.40;99.90
69031;DHT22;56083;48.774;8.942;2023-05-21T00:03:30;14.40;99.90
69031;DHT22;56083;48.774;8.942;2023-05-21T00:05:56;14.30;99.90
69031;DHT22;56083;48.774;8.942;2023-05-21T00:08:22;14.30;99.90
69031;DHT22;56083;48.774;8.942;2023-05-21T00:10:48;14.20;99.90
69031;DHT22;56083;48.774;8.942;2023-05-21T00:13:14;14.20;99.90
69031;DHT22;56083;48.774;8.942;2023-05-21T00:15:39;14.20;99.90
69031;DHT22;56083;48.774;8.942;2023-05-21T00:18:05;14.10;99.90
69031;DHT22;56083;48.774;8.942;2023-05-21T00:20:31;14.10;99.90
69031;DHT22;56083;48.774;8.942;2023-05-21T00:23:00;14.10;99.90
69031;DHT22;56083;48.774;8.942;2023-05-21T00:25:29;14.10;99.90
69031;DHT22;56083;48.774;8.942;2023-05-21T00:27:55;14.10;99.90
69031;DHT22;56083;48.774;8.942;2023-05-21T00:30:21;14.10;99.90
69031;DHT22;56083;48.774;8.942;2023-05-21T00:32:47;14.10;99.90
69031;DHT22;56083;48.774;8.942;2023-05-21T00:35:12;14.10;99.90
69031;DHT22;56083;48.774;8.942;2023-05-21T00:37:38;14.10;99.90
69031;DHT22;56083;48.774;8.942;2023-05-21T00:40:06;14.10;99.90
69031;DHT22;56083;48.774;8.942;2023-05-21T00:42:33;14.10;99.90
69031;DHT22;56083;48.774;8.942;2023-05-21T00:45:04;14.10;99.90
69031;DHT22;56083;48.774;8.942;2023-05-21T00:47:30;14.00;99.90
69031;DHT22;56083;48.774;8.942;2023-05-21T00:49:56;14.00;99.90
69031;DHT22;56083;48.774;8.942;2023-05-21T00:52:21;14.00;99.90
69031;DHT22;56083;48.774;8.942;2023-05-21T00:54:51;13.90;99.90
69031;DHT22;56083;48.774;8.942;2023-05-21T00:57:21;13.90;99.90
69031;DHT22;56083;48.774;8.942;2023-05-21T00:59:51;13.90;99.90
69031;DHT22;56083;48.774;8.942;2023-05-21T01:02:17;13.90;99.90
69031;DHT22;56083;48.774;8.942;2023-05-21T01:04:44;13.80;99.90
69031;DHT22;56083;48.774;8.942;2023-05-21T01:07:10;13.70;99.90
69031;DHT22;56083;48.774;8.942;2023-05-21T01:09:35;13.70;99.90
69031;DHT22;56083;48.774;8.942;2023-05-21T01:12:02;13.70;99.90
69031;DHT22;56083;48.774;8.942;2023-05-21T01:14:28;13.60;99.90
69031;DHT22;56083;48.774;8.942;2023-05-21T01:16:56;13.50;99.90
69031;DHT22;56083;48.774;8.942;2023-05-21T01:19:23;13.50;99.90
69031;DHT22;56083;48.774;8.942;2023-05-21T01:21:51;13.50;99.90
69031;DHT22;56083;48.774;8.942;2023-05-21T01:24:18;13.50;99.90
69031;DHT22;56083;48.774;8.942;2023-05-21T01:26:44;13.50;99.90
69031;DHT22;56083;48.774;8.942;2023-05-21T01:29:11;13.40;99.90
69031;DHT22;56083;48.774;8.942;2023-05-21T01:34:27;13.40;99.90
69031;DHT22;56083;48.774;8.942;2023-05-21T01:36:59;13.30;99.90
69031;DHT22;56083;48.774;8.942;2023-05-21T01:39:33;13.30;99.90
69031;DHT22;56083;48.774;8.942;2023-05-21T01:42:05;13.30;99.90
69031;DHT22;56083;48.774;8.942;2023-05-21T01:44:31;13.20;99.90
69031;DHT22;56083;48.774;8.942;2023-05-21T01:46:58;13.20;99.90
69031;DHT22;56083;48.774;8.942;2023-05-21T01:49:24;13.20;99.90
69031;DHT22;56083;48.774;8.942;2023-05-21T01:51:50;13.20;99.90
69031;DHT22;56083;48.774;8.942;2023-05-21T01:54:16;13.10;99.90
69031;DHT22;56083;48.774;8.942;2023-05-21T01:56:42;13.10;99.90
69031;DHT22;56083;48.774;8.942;2023-05-21T01:59:07;13.10;99.90
69031;DHT22;56083;48.774;8.942;2023-05-21T02:01:33;13.10;99.90
69031;DHT22;56083;48.774;8.942;2023-05-21T02:03:59;13.00;99.90
69031;DHT22;56083;48.774;8.942;2023-05-21T02:06:24;13.00;99.90
69031;DHT22;56083;48.774;8.942;2023-05-21T02:08:50;13.00;99.90
69031;DHT22;56083;48.774;8.942;2023-05-21T02:11:16;13.00;99.90
69031;DHT22;56083;48.774;8.942;2023-05-21T02:13:42;13.00;99.90
69031;DHT22;56083;48.774;8.942;2023-05-21T02:16:11;12.90;99.90
69031;DHT22;56083;48.774;8.942;2023-05-21T02:18:41;12.90;99.90
69031;DHT22;56083;48.774;8.942;2023-05-21T02:21:11;12.90;99.90
69031;DHT22;56083;48.774;8.942;2023-05-21T02:23:37;12.90;99.90
69031;DHT22;56083;48.774;8.942;2023-05-21T02:26:03;12.90;99.90
69031;DHT22;56083;48.774;8.942;2023-05-21T02:28:28;12.90;99.90
69031;DHT22;56083;48.774;8.942;2023-05-21T02:30:55;12.90;99.90
69031;DHT22;56083;48.774;8.942;2023-05-21T02:33:20;12.80;99.90
69031;DHT22;56083;48.774;8.942;2023-05-21T02:35:46;12.80;99.90
69031;DHT22;56083;48.774;8.942;2023-05-21T02:38:13;12.80;99.90
69031;DHT22;56083;48.774;8.942;2023-05-21T02:40:39;12.80;99.90
69031;DHT22;56083;48.774;8.942;2023-05-21T02:43:05;12.80;99.90
69031;DHT22;56083;48.774;8.942;2023-05-21T02:45:30;12.80;99.90
69031;DHT22;56083;48.774;8.942;2023-05-21T02:47:56;12.80;99.90
69031;DHT22;56083;48.774;8.942;2023-05-21T02:50:22;12.80;99.90
69031;DHT22;56083;48.774;8.942;2023-05-21T02:52:48;12.80;99.90
69031;DHT22;56083;48.774;8.942;2023-05-21T02:55:13;12.80;99.90
69031;DHT22;56083;48.774;8.942;2023-05-21T02:57:39;12.80;99.90
69031;DHT22;56083;48.774;8.942;2023-05-21T03:00:05;12.80;99.90
69031;DHT22;56083;48.774;8.942;2023-05-21T03:02:34;12.80;99.90
69031;DHT22;56083;48.774;8.942;2023-05-21T03:04:59;12.80;99.90
69031;DHT22;56083;48.774;8.942;2023-05-21T03:07:25;12.70;99.90
69031;DHT22;56083;48.774;8.942;2023-05-21T03:09:51;12.70;99.90
69031;DHT22;56083;48.774;8.942;2023-05-21T03:12:17;12.70;99.90
69031;DHT22;56083;48.774;8.942;2023-05-21T03:14:42;12.70;99.90
69031;DHT22;56083;48.774;8.942;2023-05-21T03:17:09;12.60;99.90
69031;DHT22;56083;48.774;8.942;2023-05-21T03:19:40;12.60;99.90
69031;DHT22;56083;48.774;8.942;2023-05-21T03:22:06;12.60;99.90
69031;DHT22;56083;48.774;8.942;2023-05-21T03:24:32;12.60;99.90
69031;DHT22;56083;48.774;8.942;2023-05-21T03:27:01;12.50;99.90
69031;DHT22;56083;48.774;8.942;2023-05-21T03:29:27;12.50;99.90
69031;DHT22;56083;48.774;8.942;2023-05-21T03:31:53;12.50;99.90
69031;DHT22;56083;48.774;8.942;2023-05-21T03:34:19;12.50;99.90
69031;DHT22;56083;48.774;8.942;2023-05-21T03:36:45;12.40;99.90
69031;DHT22;56083;48.774;8.942;2023-05-21T03:39:11;12.40;99.90
69031;DHT22;56083;48.774;8.942;2023-05-21T03:41:36;12.40;99.90
69031;DHT22;56083;48.774;8.942;2023-05-21T03:44:02;12.30;99.90
69031;DHT22;56083;48.774;8.942;2023-05-21T03:46:28;12.30;99.90
69031;DHT22;56083;48.774;8.942;2023-05-21T03:48:53;12.30;99.90
69031;DHT22;56083;48.774;8.942;2023-05-21T03:51:19;12.30;99.90
69031;DHT22;56083;48.774;8.942;2023-05-21T03:53:45;12.30;99.90
69031;DHT22;56083;48.774;8.942;2023-05-21T03:56:10;12.30;99.90
69031;DHT22;56083;48.774;8.942;2023-05-21T03:58:36;12.30;99.90
69031;DHT22;56083;48.774;8.942;2023-05-21T04:01:02;12.40;99.90
69031;DHT22;56083;48.774;8.942;2023-05-21T04:03:29;12.40;99.90
69031;DHT22;56083;48.774;8.942;2023-05-21T04:05:54;12.40;99.90
69031;DHT22;56083;48.774;8.942;2023-05-21T04:08:21;12.40;99.90
69031;DHT22;56083;48.774;8.942;2023-05-21T04:10:46;12.40;99.90
69031;DHT22;56083;48.774;8.942;2023-05-21T04:13:12;12.50;99.90
69031;DHT22;56083;48.774;8.942;2023-05-21T04:15:37;12.50;99.90
69031;DHT22;56083;48.774;8.942;2023-05-21T04:18:03;12.50;99.90
69031;DHT22;56083;48.774;8.942;2023-05-21T04:20:29;12.50;99.90
69031;DHT22;56083;48.774;8.942;2023-05-21T04:22:55;12.50;99.90
69031;DHT22;56083;48.774;8.942;2023-05-21T04:25:21;12.60;99.90
69031;DHT22;56083;48.774;8.942;2023-05-21T04:27:47;12.50;99.90
69031;DHT22;56083;48.774;8.942;2023-05-21T04:30:14;12.60;99.90
69031;DHT22;56083;48.774;8.942;2023-05-21T04:32:40;12.60;99.90
69031;DHT22;56083;48.774;8.942;2023-05-21T04:35:06;12.70;99.90
69031;DHT22;56083;48.774;8.942;2023-05-21T04:37:31;12.80;99.90
69031;DHT22;56083;48.774;8.942;2023-05-21T04:39:59;12.80;99.90
69031;DHT22;56083;48.774;8.942;2023-05-21T04:42:26;12.80;99.90
69031;DHT22;56083;48.774;8.942;2023-05-21T04:44:51;12.90;99.90
69031;DHT22;56083;48.774;8.942;2023-05-21T04:47:19;12.90;99.90
69031;DHT22;56083;48.774;8.942;2023-05-21T04:49:45;13.00;99.90
69031;DHT22;56083;48.774;8.942;2023-05-21T04:52:15;13.00;99.90
69031;DHT22;56083;48.774;8.942;2023-05-21T04:54:41;13.10;99.90
69031;DHT22;56083;48.774;8.942;2023-05-21T04:57:07;13.10;99.90
69031;DHT22;56083;48.774;8.942;2023-05-21T04:59:33;13.10;99.90
69031;DHT22;56083;48.774;8.942;2023-05-21T05:01:59;13.10;99.90
69031;DHT22;56083;48.774;8.942;2023-05-21T05:04:25;13.20;99.90
69031;DHT22;56083;48.774;8.942;2023-05-21T05:06:50;13.30;99.90
69031;DHT22;56083;48.774;8.942;2023-05-21T05:09:17;13.40;99.90
69031;DHT22;56083;48.774;8.942;2023-05-21T05:11:43;13.40;99.90
69031;DHT22;56083;48.774;8.942;2023-05-21T05:14:09;13.40;99.90
69031;DHT22;56083;48.774;8.942;2023-05-21T05:16:34;13.40;99.90
69031;DHT22;56083;48.774;8.942;2023-05-21T05:19:00;13.50;99.90
69031;DHT22;56083;48.774;8.942;2023-05-21T05:21:26;13.70;99.90
69031;DHT22;56083;48.774;8.942;2023-05-21T05:23:51;13.80;99.90
69031;DHT22;56083;48.774;8.942;2023-05-21T05:26:17;13.90;99.90
69031;DHT22;56083;48.774;8.942;2023-05-21T05:28:43;14.10;99.90
69031;DHT22;56083;48.774;8.942;2023-05-21T05:31:10;14.20;99.90
69031;DHT22;56083;48.774;8.942;2023-05-21T05:33:35;14.30;99.90
69031;DHT22;56083;48.774;8.942;2023-05-21T05:36:01;14.50;99.90
69031;DHT22;56083;48.774;8.942;2023-05-21T05:38:27;14.50;99.90
69031;DHT22;56083;48.774;8.942;2023-05-21T05:40:52;14.60;99.90
69031;DHT22;56083;48.774;8.942;2023-05-21T05:43:18;14.80;99.90
69031;DHT22;56083;48.774;8.942;2023-05-21T05:45:43;14.90;99.90
69031;DHT22;56083;48.774;8.942;2023-05-21T05:48:09;15.10;99.90
69031;DHT22;56083;48.774;8.942;2023-05-21T05:50:35;15.20;99.90
69031;DHT22;56083;48.774;8.942;2023-05-21T05:53:00;15.10;99.90
69031;DHT22;56083;48.774;8.942;2023-05-21T05:55:26;15.10;99.90
69031;DHT22;56083;48.774;8.942;2023-05-21T05:57:52;15.10;99.90
69031;DHT22;56083;48.774;8.942;2023-05-21T06:00:18;15.10;99.90
69031;DHT22;56083;48.774;8.942;2023-05-21T06:02:44;15.30;99.90
69031;DHT22;56083;48.774;8.942;2023-05-21T06:05:09;15.50;99.90
69031;DHT22;56083;48.774;8.942;2023-05-21T06:07:39;15.70;99.90
69031;DHT22;56083;48.774;8.942;2023-05-21T06:10:05;15.90;99.90
69031;DHT22;56083;48.774;8.942;2023-05-21T06:12:31;16.10;99.90
69031;DHT22;56083;48.774;8.942;2023-05-21T06:14:57;16.30;99.90
69031;DHT22;56083;48.774;8.942;2023-05-21T06:17:23;16.50;99.90
69031;DHT22;56083;48.774;8.942;2023-05-21T06:19:48;16.90;99.90
69031;DHT22;56083;48.774;8.942;2023-05-21T06:22:14;17.20;99.90
69031;DHT22;56083;48.774;8.942;2023-05-21T06:24:39;17.50;99.90
69031;DHT22;56083;48.774;8.942;2023-05-21T06:27:05;17.80;99.90
69031;DHT22;56083;48.774;8.942;2023-05-21T06:29:31;18.10;99.90
69031;DHT22;56083;48.774;8.942;2023-05-21T06:31:56;18.40;99.90
69031;DHT22;56083;48.774;8.942;2023-05-21T06:34:22;18.60;99.90
69031;DHT22;56083;48.774;8.942;2023-05-21T06:36:51;18.80;99.90
69031;DHT22;56083;48.774;8.942;2023-05-21T06:39:16;19.10;99.90
69031;DHT22;56083;48.774;8.942;2023-05-21T06:41:42;19.20;99.90
69031;DHT22;56083;48.774;8.942;2023-05-21T06:44:07;19.50;99.90
69031;DHT22;56083;48.774;8.942;2023-05-21T06:46:34;19.70;99.90
69031;DHT22;56083;48.774;8.942;2023-05-21T06:49:00;19.90;99.90
69031;DHT22;56083;48.774;8.942;2023-05-21T06:51:26;19.80;99.90
69031;DHT22;56083;48.774;8.942;2023-05-21T06:53:51;19.90;99.90
69031;DHT22;56083;48.774;8.942;2023-05-21T06:56:17;20.20;99.90
69031;DHT22;56083;48.774;8.942;2023-05-21T06:58:43;20.30;99.90
69031;DHT22;56083;48.774;8.942;2023-05-21T07:01:09;20.60;99.90
69031;DHT22;56083;48.774;8.942;2023-05-21T07:03:36;20.60;99.90
69031;DHT22;56083;48.774;8.942;2023-05-21T07:06:02;20.70;99.90
69031;DHT22;56083;48.774;8.942;2023-05-21T07:08:27;21.00;99.90
69031;DHT22;56083;48.774;8.942;2023-05-21T07:10:53;21.20;99.90
69031;DHT22;56083;48.774;8.942;2023-05-21T07:13:21;21.40;99.90
69031;DHT22;56083;48.774;8.942;2023-05-21T07:15:47;21.60;99.90
69031;DHT22;56083;48.774;8.942;2023-05-21T07:18:12;22.00;99.90
69031;DHT22;56083;48.774;8.942;2023-05-21T07:20:38;22.40;99.90
69031;DHT22;56083;48.774;8.942;2023-05-21T07:23:04;22.90;99.90
69031;DHT22;56083;48.774;8.942;2023-05-21T07:25:30;23.10;99.90
69031;DHT22;56083;48.774;8.942;2023-05-21T07:27:55;23.40;99.90
69031;DHT22;56083;48.774;8.942;2023-05-21T07:30:21;23.60;99.90
69031;DHT22;56083;48.774;8.942;2023-05-21T07:32:47;23.80;99.90
69031;DHT22;56083;48.774;8.942;2023-05-21T07:35:12;24.00;99.90
69031;DHT22;56083;48.774;8.942;2023-05-21T07:37:38;24.10;99.90
69031;DHT22;56083;48.774;8.942;2023-05-21T07:40:05;23.80;99.90
69031;DHT22;56083;48.774;8.942;2023-05-21T07:42:32;23.80;99.90
69031;DHT22;56083;48.774;8.942;2023-05-21T07:44:58;24.10;99.90
69031;DHT22;56083;48.774;8.942;2023-05-21T07:47:24;24.40;99.90
69031;DHT22;56083;48.774;8.942;2023-05-21T07:49:50;24.60;99.90
69031;DHT22;56083;48.774;8.942;2023-05-21T07:52:16;25.20;99.90
69031;DHT22;56083;48.774;8.942;2023-05-21T07:54:42;25.60;99.90
69031;DHT22;56083;48.774;8.942;2023-05-21T07:57:07;26.30;99.90
69031;DHT22;56083;48.774;8.942;2023-05-21T07:59:33;26.80;99.90
69031;DHT22;56083;48.774;8.942;2023-05-21T08:01:58;27.30;99.90
69031;DHT22;56083;48.774;8.942;2023-05-21T08:04:24;27.60;99.90
69031;DHT22;56083;48.774;8.942;2023-05-21T08:06:50;27.90;99.90
69031;DHT22;56083;48.774;8.942;2023-05-21T08:09:16;28.30;99.90
69031;DHT22;56083;48.774;8.942;2023-05-21T08:11:43;28.80;99.90
69031;DHT22;56083;48.774;8.942;2023-05-21T08:14:09;29.00;99.90
69031;DHT22;56083;48.774;8.942;2023-05-21T08:16:35;29.10;99.90
69031;DHT22;56083;48.774;8.942;2023-05-21T08:19:01;29.10;99.90
69031;DHT22;56083;48.774;8.942;2023-05-21T08:21:27;30.00;99.90
69031;DHT22;56083;48.774;8.942;2023-05-21T08:23:52;30.20;99.90
69031;DHT22;56083;48.774;8.942;2023-05-21T08:26:18;30.80;99.90
69031;DHT22;56083;48.774;8.942;2023-05-21T08:28:44;30.70;99.90
69031;DHT22;56083;48.774;8.942;2023-05-21T08:31:10;30.90;99.90
69031;DHT22;56083;48.774;8.942;2023-05-21T08:33:37;31.10;99.90
69031;DHT22;56083;48.774;8.942;2023-05-21T08:36:04;31.00;99.90
69031;DHT22;56083;48.774;8.942;2023-05-21T08:38:30;30.70;99.90
69031;DHT22;56083;48.774;8.942;2023-05-21T08:40:57;30.50;99.90
69031;DHT22;56083;48.774;8.942;2023-05-21T08:43:26;30.80;99.90
69031;DHT22;56083;48.774;8.942;2023-05-21T08:45:53;30.60;99.90
69031;DHT22;56083;48.774;8.942;2023-05-21T08:48:23;30.20;99.90
69031;DHT22;56083;48.774;8.942;2023-05-21T08:50:53;30.30;99.50
69031;DHT22;56083;48.774;8.942;2023-05-21T08:53:20;30.20;99.60
69031;DHT22;56083;48.774;8.942;2023-05-21T08:55:46;30.60;98.40
69031;DHT22;56083;48.774;8.942;2023-05-21T08:58:12;31.10;97.40
69031;DHT22;56083;48.774;8.942;2023-05-21T09:00:38;30.80;97.60
69031;DHT22;56083;48.774;8.942;2023-05-21T09:03:04;30.20;97.00
69031;DHT22;56083;48.774;8.942;2023-05-21T09:05:40;30.20;98.30
69031;DHT22;56083;48.774;8.942;2023-05-21T09:08:13;30.60;97.70
69031;DHT22;56083;48.774;8.942;2023-05-21T09:10:48;31.30;96.00
69031;DHT22;56083;48.774;8.942;2023-05-21T09:13:16;32.10;94.30
69031;DHT22;56083;48.774;8.942;2023-05-21T09:15:45;33.40;91.40
69031;DHT22;56083;48.774;8.942;2023-05-21T09:18:12;33.80;91.10
69031;DHT22;56083;48.774;8.942;2023-05-21T09:20:37;33.80;91.40
69031;DHT22;56083;48.774;8.942;2023-05-21T09:23:04;34.60;88.70
69031;DHT22;56083;48.774;8.942;2023-05-21T09:25:31;34.30;87.20
69031;DHT22;56083;48.774;8.942;2023-05-21T09:27:58;34.50;85.70
69031;DHT22;56083;48.774;8.942;2023-05-21T09:30:23;34.80;85.10
69031;DHT22;56083;48.774;8.942;2023-05-21T09:32:55;35.20;82.80
69031;DHT22;56083;48.774;8.942;2023-05-21T09:35:21;35.70;82.80
69031;DHT22;56083;48.774;8.942;2023-05-21T09:37:49;35.60;78.60
69031;DHT22;56083;48.774;8.942;2023-05-21T09:40:16;35.70;77.60
69031;DHT22;56083;48.774;8.942;2023-05-21T09:42:46;35.60;77.60
69031;DHT22;56083;48.774;8.942;2023-05-21T09:45:20;35.30;80.30
69031;DHT22;56083;48.774;8.942;2023-05-21T09:47:47;34.90;77.40
69031;DHT22;56083;48.774;8.942;2023-05-21T09:50:20;34.70;80.30
69031;DHT22;56083;48.774;8.942;2023-05-21T09:52:47;35.40;77.30
69031;DHT22;56083;48.774;8.942;2023-05-21T09:55:15;35.60;75.40
69031;DHT22;56083;48.774;8.942;2023-05-21T09:57:42;35.50;74.90
69031;DHT22;56083;48.774;8.942;2023-05-21T10:00:26;35.40;75.40
69031;DHT22;56083;48.774;8.942;2023-05-21T10:03:00;35.30;75.40
69031;DHT22;56083;48.774;8.942;2023-05-21T10:05:27;35.30;73.80
69031;DHT22;56083;48.774;8.942;2023-05-21T10:08:00;35.50;73.10
69031;DHT22;56083;48.774;8.942;2023-05-21T10:10:27;35.00;72.10
69031;DHT22;56083;48.774;8.942;2023-05-21T10:13:13;34.80;72.20
69031;DHT22;56083;48.774;8.942;2023-05-21T10:15:53;33.50;75.10
69031;DHT22;56083;48.774;8.942;2023-05-21T10:18:21;33.30;75.00
69031;DHT22;56083;48.774;8.942;2023-05-21T10:20:50;32.90;77.50
69031;DHT22;56083;48.774;8.942;2023-05-21T10:23:17;32.80;78.00
69031;DHT22;56083;48.774;8.942;2023-05-21T10:25:44;33.20;75.00
69031;DHT22;56083;48.774;8.942;2023-05-21T10:28:10;33.20;76.10
69031;DHT22;56083;48.774;8.942;2023-05-21T10:30:41;34.30;75.70
69031;DHT22;56083;48.774;8.942;2023-05-21T10:33:07;34.90;73.90
69031;DHT22;56083;48.774;8.942;2023-05-21T10:35:33;35.70;71.00
69031;DHT22;56083;48.774;8.942;2023-05-21T10:38:03;36.60;68.10
69031;DHT22;56083;48.774;8.942;2023-05-21T10:40:28;37.20;67.10
69031;DHT22;56083;48.774;8.942;2023-05-21T10:46:03;36.50;65.80
69031;DHT22;56083;48.774;8.942;2023-05-21T10:57:21;36.10;64.60
69031;DHT22;56083;48.774;8.942;2023-05-21T10:59:56;35.80;65.10
69031;DHT22;56083;48.774;8.942;2023-05-21T11:02:25;35.80;66.70
69031;DHT22;56083;48.774;8.942;2023-05-21T11:04:57;37.10;64.10
69031;DHT22;56083;48.774;8.942;2023-05-21T11:07:53;37.60;62.50
69031;DHT22;56083;48.774;8.942;2023-05-21T11:10:36;38.10;61.00
69031;DHT22;56083;48.774;8.942;2023-05-21T11:13:12;38.00;60.40
69031;DHT22;56083;48.774;8.942;2023-05-21T11:20:51;37.70;59.60
69031;DHT22;56083;48.774;8.942;2023-05-21T11:23:20;38.00;58.30
69031;DHT22;56083;48.774;8.942;2023-05-21T11:26:01;37.80;59.10
69031;DHT22;56083;48.774;8.942;2023-05-21T11:28:33;37.20;59.60
69031;DHT22;56083;48.774;8.942;2023-05-21T11:31:22;36.80;60.60
69031;DHT22;56083;48.774;8.942;2023-05-21T11:36:36;36.60;59.30
69031;DHT22;56083;48.774;8.942;2023-05-21T11:41:57;36.00;59.80
69031;DHT22;56083;48.774;8.942;2023-05-21T11:47:09;36.10;59.30
69031;DHT22;56083;48.774;8.942;2023-05-21T11:49:36;35.90;58.60
69031;DHT22;56083;48.774;8.942;2023-05-21T11:52:06;35.40;62.10
69031;DHT22;56083;48.774;8.942;2023-05-21T11:54:33;35.40;60.70
69031;DHT22;56083;48.774;8.942;2023-05-21T11:57:06;34.80;61.00
69031;DHT22;56083;48.774;8.942;2023-05-21T11:59:33;34.20;61.50
69031;DHT22;56083;48.774;8.942;2023-05-21T12:01:59;33.80;63.20
69031;DHT22;56083;48.774;8.942;2023-05-21T12:04:32;33.60;63.30
69031;DHT22;56083;48.774;8.942;2023-05-21T12:07:09;33.80;63.30
69031;DHT22;56083;48.774;8.942;2023-05-21T12:09:52;33.60;63.60
69031;DHT22;56083;48.774;8.942;2023-05-21T12:12:20;33.50;64.40
69031;DHT22;56083;48.774;8.942;2023-05-21T12:14:52;33.00;64.70
69031;DHT22;56083;48.774;8.942;2023-05-21T12:17:20;32.60;65.70
69031;DHT22;56083;48.774;8.942;2023-05-21T12:19:47;32.50;66.90
69031;DHT22;56083;48.774;8.942;2023-05-21T12:22:13;32.40;66.60
69031;DHT22;56083;48.774;8.942;2023-05-21T12:24:42;32.70;66.20
69031;DHT22;56083;48.774;8.942;2023-05-21T12:27:13;32.60;65.30
69031;DHT22;56083;48.774;8.942;2023-05-21T12:29:42;33.10;64.70
69031;DHT22;56083;48.774;8.942;2023-05-21T12:32:12;33.50;63.40
69031;DHT22;56083;48.774;8.942;2023-05-21T12:34:45;34.20;63.50
69031;DHT22;56083;48.774;8.942;2023-05-21T12:39:45;33.50;62.00
69031;DHT22;56083;48.774;8.942;2023-05-21T12:42:12;33.50;60.30
69031;DHT22;56083;48.774;8.942;2023-05-21T12:44:47;34.10;59.80
69031;DHT22;56083;48.774;8.942;2023-05-21T12:47:13;34.30;61.40
69031;DHT22;56083;48.774;8.942;2023-05-21T12:49:44;34.20;62.30
69031;DHT22;56083;48.774;8.942;2023-05-21T12:52:11;34.40;60.30
69031;DHT22;56083;48.774;8.942;2023-05-21T12:54:39;34.30;61.10
69031;DHT22;56083;48.774;8.942;2023-05-21T12:57:09;33.80;61.10
69031;DHT22;56083;48.774;8.942;2023-05-21T12:59:50;33.70;61.40
69031;DHT22;56083;48.774;8.942;2023-05-21T13:02:28;33.20;60.90
69031;DHT22;56083;48.774;8.942;2023-05-21T13:04:57;33.20;60.90
69031;DHT22;56083;48.774;8.942;2023-05-21T13:07:24;33.20;62.60
69031;DHT22;56083;48.774;8.942;2023-05-21T13:09:51;32.90;64.10
69031;DHT22;56083;48.774;8.942;2023-05-21T13:12:21;32.50;65.10
69031;DHT22;56083;48.774;8.942;2023-05-21T13:14:52;32.80;62.60
69031;DHT22;56083;48.774;8.942;2023-05-21T13:17:18;32.70;63.20
69031;DHT22;56083;48.774;8.942;2023-05-21T13:22:30;31.80;63.20
69031;DHT22;56083;48.774;8.942;2023-05-21T13:24:56;31.20;63.90
69031;DHT22;56083;48.774;8.942;2023-05-21T13:27:21;31.10;65.00
69031;DHT22;56083;48.774;8.942;2023-05-21T13:29:47;30.50;66.60
69031;DHT22;56083;48.774;8.942;2023-05-21T13:32:12;29.90;67.00
69031;DHT22;56083;48.774;8.942;2023-05-21T13:34:38;29.80;67.10
69031;DHT22;56083;48.774;8.942;2023-05-21T13:37:03;29.90;67.20
69031;DHT22;56083;48.774;8.942;2023-05-21T13:39:29;30.00;64.50
69031;DHT22;56083;48.774;8.942;2023-05-21T13:41:55;29.90;66.80
69031;DHT22;56083;48.774;8.942;2023-05-21T13:44:20;30.10;67.10
69031;DHT22;56083;48.774;8.942;2023-05-21T13:46:46;29.80;67.70
69031;DHT22;56083;48.774;8.942;2023-05-21T13:49:12;29.70;67.30
69031;DHT22;56083;48.774;8.942;2023-05-21T13:51:37;29.40;69.10
69031;DHT22;56083;48.774;8.942;2023-05-21T13:54:03;29.10;70.20
69031;DHT22;56083;48.774;8.942;2023-05-21T13:56:29;28.60;72.00
69031;DHT22;56083;48.774;8.942;2023-05-21T13:58:57;28.40;71.60
69031;DHT22;56083;48.774;8.942;2023-05-21T14:01:23;28.60;72.20
69031;DHT22;56083;48.774;8.942;2023-05-21T14:03:48;28.20;72.60
69031;DHT22;56083;48.774;8.942;2023-05-21T14:06:14;28.10;74.70
69031;DHT22;56083;48.774;8.942;2023-05-21T14:08:40;28.10;74.10
69031;DHT22;56083;48.774;8.942;2023-05-21T14:11:06;28.10;75.20
69031;DHT22;56083;48.774;8.942;2023-05-21T14:13:31;27.90;75.60
69031;DHT22;56083;48.774;8.942;2023-05-21T14:15:57;27.90;74.30
69031;DHT22;56083;48.774;8.942;2023-05-21T14:18:22;27.70;75.70
69031;DHT22;56083;48.774;8.942;2023-05-21T14:20:48;27.50;76.20
69031;DHT22;56083;48.774;8.942;2023-05-21T14:23:14;27.70;74.90
69031;DHT22;56083;48.774;8.942;2023-05-21T14:25:40;27.50;75.90
69031;DHT22;56083;48.774;8.942;2023-05-21T14:28:06;27.70;77.10
69031;DHT22;56083;48.774;8.942;2023-05-21T14:30:32;27.80;76.10
69031;DHT22;56083;48.774;8.942;2023-05-21T14:32:58;27.60;73.30
69031;DHT22;56083;48.774;8.942;2023-05-21T14:35:23;27.70;73.30
69031;DHT22;56083;48.774;8.942;2023-05-21T14:37:49;27.50;75.10
69031;DHT22;56083;48.774;8.942;2023-05-21T14:40:15;27.50;75.90
69031;DHT22;56083;48.774;8.942;2023-05-21T14:42:41;27.60;77.00
69031;DHT22;56083;48.774;8.942;2023-05-21T14:45:08;27.50;76.50
69031;DHT22;56083;48.774;8.942;2023-05-21T14:47:33;27.60;77.80
69031;DHT22;56083;48.774;8.942;2023-05-21T14:49:59;27.30;77.50
69031;DHT22;56083;48.774;8.942;2023-05-21T14:52:25;27.40;77.30
69031;DHT22;56083;48.774;8.942;2023-05-21T14:54:50;27.30;77.10
69031;DHT22;56083;48.774;8.942;2023-05-21T14:57:16;27.50;78.40
69031;DHT22;56083;48.774;8.942;2023-05-21T14:59:41;27.50;75.60
69031;DHT22;56083;48.774;8.942;2023-05-21T15:02:07;27.30;78.10
69031;DHT22;56083;48.774;8.942;2023-05-21T15:04:33;27.20;76.90
69031;DHT22;56083;48.774;8.942;2023-05-21T15:06:58;27.30;76.40
69031;DHT22;56083;48.774;8.942;2023-05-21T15:09:25;27.40;77.20
69031;DHT22;56083;48.774;8.942;2023-05-21T15:11:50;27.50;77.20
69031;DHT22;56083;48.774;8.942;2023-05-21T15:14:18;27.70;76.20
69031;DHT22;56083;48.774;8.942;2023-05-21T15:16:44;27.80;74.60
69031;DHT22;56083;48.774;8.942;2023-05-21T15:19:09;27.90;73.80
69031;DHT22;56083;48.774;8.942;2023-05-21T15:21:36;27.80;75.70
69031;DHT22;56083;48.774;8.942;2023-05-21T15:24:02;28.20;75.30
69031;DHT22;56083;48.774;8.942;2023-05-21T15:26:28;28.10;75.20
69031;DHT22;56083;48.774;8.942;2023-05-21T15:28:53;28.40;75.00
69031;DHT22;56083;48.774;8.942;2023-05-21T15:31:19;28.70;71.90
69031;DHT22;56083;48.774;8.942;2023-05-21T15:33:45;29.00;74.30
69031;DHT22;56083;48.774;8.942;2023-05-21T15:36:11;29.10;74.50
69031;DHT22;56083;48.774;8.942;2023-05-21T15:38:36;29.20;72.60
69031;DHT22;56083;48.774;8.942;2023-05-21T15:41:02;29.20;73.60
69031;DHT22;56083;48.774;8.942;2023-05-21T15:43:28;29.10;73.70
69031;DHT22;56083;48.774;8.942;2023-05-21T15:45:53;28.90;74.00
69031;DHT22;56083;48.774;8.942;2023-05-21T15:48:19;29.00;73.90
69031;DHT22;56083;48.774;8.942;2023-05-21T15:50:47;29.10;72.90
69031;DHT22;56083;48.774;8.942;2023-05-21T15:53:13;29.20;73.60
69031;DHT22;56083;48.774;8.942;2023-05-21T15:55:39;29.30;72.70
69031;DHT22;56083;48.774;8.942;2023-05-21T15:58:05;29.50;73.00
69031;DHT22;56083;48.774;8.942;2023-05-21T16:00:30;29.40;73.10
69031;DHT22;56083;48.774;8.942;2023-05-21T16:02:56;29.40;72.40